createdAt,value
2018-09-13T00:00:37.454Z,17.10
2018-09-13T00:03:04.648Z,17.10
2018-09-13T00:05:31.773Z,17.10
2018-09-13T00:07:58.898Z,17.10
2018-09-13T00:10:26.039Z,17.00
2018-09-13T00:12:53.150Z,17.10
2018-09-13T00:15:20.286Z,17.00
2018-09-13T00:17:47.392Z,17.10
2018-09-13T00:20:14.721Z,17.00
2018-09-13T00:22:41.845Z,16.90
2018-09-13T00:25:08.974Z,16.90
2018-09-13T00:27:36.089Z,16.90
2018-09-13T00:30:03.506Z,16.90
2018-09-13T00:32:30.630Z,16.90
2018-09-13T00:34:57.745Z,16.90
2018-09-13T00:37:24.842Z,16.90
2018-09-13T00:39:51.961Z,16.90
2018-09-13T00:42:19.064Z,16.80
2018-09-13T00:44:46.167Z,16.70
2018-09-13T00:47:13.394Z,16.70
2018-09-13T00:49:41.445Z,16.70
2018-09-13T00:52:08.606Z,16.70
2018-09-13T00:54:35.690Z,16.60
2018-09-13T00:57:02.854Z,16.50
2018-09-13T00:59:30.154Z,16.40
2018-09-13T01:01:57.270Z,16.40
2018-09-13T01:04:24.528Z,16.50
2018-09-13T01:06:51.622Z,16.50
2018-09-13T01:09:18.722Z,16.50
2018-09-13T01:11:45.817Z,16.50
2018-09-13T01:14:12.911Z,16.50
2018-09-13T01:16:40.017Z,16.60
2018-09-13T01:19:07.143Z,16.70
2018-09-13T01:21:34.234Z,16.80
2018-09-13T01:24:01.342Z,16.70
2018-09-13T01:26:28.442Z,16.60
2018-09-13T01:28:55.542Z,16.70
2018-09-13T01:31:22.715Z,16.60
2018-09-13T01:33:49.816Z,16.60
2018-09-13T01:36:16.906Z,16.60
2018-09-13T01:38:44.047Z,16.50
2018-09-13T01:41:11.174Z,16.50
2018-09-13T01:43:38.303Z,16.40
2018-09-13T01:46:05.454Z,16.50
2018-09-13T01:48:32.602Z,16.50
2018-09-13T01:50:59.722Z,16.50
2018-09-13T01:53:26.842Z,16.60
2018-09-13T01:55:53.966Z,16.60
2018-09-13T01:58:21.793Z,16.50
2018-09-13T02:00:48.952Z,16.40
2018-09-13T02:03:16.079Z,16.50
2018-09-13T02:05:43.222Z,16.50
2018-09-13T02:08:10.366Z,16.40
2018-09-13T02:10:37.489Z,16.40
2018-09-13T02:13:04.941Z,16.30
2018-09-13T02:15:32.073Z,16.30
2018-09-13T02:17:59.205Z,16.30
2018-09-13T02:20:26.338Z,16.20
2018-09-13T02:22:53.465Z,16.10
2018-09-13T02:25:20.893Z,16.00
2018-09-13T02:27:48.046Z,16.00
2018-09-13T02:30:15.177Z,15.90
2018-09-13T02:32:42.309Z,15.90
2018-09-13T02:35:09.446Z,15.90
2018-09-13T02:37:36.582Z,15.90
2018-09-13T02:40:03.889Z,16.00
2018-09-13T02:42:31.066Z,16.10
2018-09-13T02:44:58.201Z,16.20
2018-09-13T02:47:25.331Z,16.20
2018-09-13T02:49:52.462Z,16.30
2018-09-13T02:52:19.713Z,16.40
2018-09-13T02:54:46.847Z,16.40
2018-09-13T02:57:13.978Z,16.40
2018-09-13T02:59:41.105Z,16.40
2018-09-13T03:02:08.235Z,16.40
2018-09-13T03:04:35.370Z,16.50
2018-09-13T03:07:02.515Z,16.40
2018-09-13T03:09:29.641Z,16.40
2018-09-13T03:11:56.761Z,16.50
2018-09-13T03:14:23.891Z,16.50
2018-09-13T03:16:51.017Z,16.50
2018-09-13T03:19:18.149Z,16.50
2018-09-13T03:21:45.286Z,16.60
2018-09-13T03:24:12.423Z,16.60
2018-09-13T03:26:39.550Z,16.60
2018-09-13T03:29:06.719Z,16.50
2018-09-13T03:31:33.849Z,16.40
2018-09-13T03:34:01.034Z,16.30
2018-09-13T03:36:28.173Z,16.20
2018-09-13T03:38:55.374Z,16.10
2018-09-13T03:41:22.493Z,16.10
2018-09-13T03:43:49.609Z,16.00
2018-09-13T03:46:16.762Z,16.00
2018-09-13T03:48:43.881Z,16.00
2018-09-13T03:51:11.021Z,15.90
2018-09-13T03:53:38.140Z,15.90
2018-09-13T03:56:05.310Z,15.90
2018-09-13T03:58:32.434Z,15.90
2018-09-13T04:00:59.581Z,15.90
2018-09-13T04:03:26.765Z,15.90
2018-09-13T04:05:54.098Z,16.00
2018-09-13T04:08:22.381Z,16.10
2018-09-13T04:10:49.517Z,16.20
2018-09-13T04:13:16.674Z,16.30
2018-09-13T04:15:43.808Z,16.40
2018-09-13T04:18:10.933Z,16.40
2018-09-13T04:20:38.107Z,16.50
2018-09-13T04:23:05.410Z,16.50
2018-09-13T04:25:32.562Z,16.60
2018-09-13T04:27:59.681Z,16.60
2018-09-13T04:30:26.822Z,16.60
2018-09-13T04:32:53.951Z,16.60
2018-09-13T04:35:21.077Z,16.70
2018-09-13T04:37:48.198Z,16.70
2018-09-13T04:40:15.349Z,16.70
2018-09-13T04:42:42.450Z,16.70
2018-09-13T04:45:09.565Z,16.70
2018-09-13T04:47:36.665Z,16.70
2018-09-13T04:50:04.713Z,16.70
2018-09-13T04:52:31.881Z,16.70
2018-09-13T04:54:59.018Z,16.70
2018-09-13T04:57:26.127Z,16.70
2018-09-13T04:59:53.225Z,16.70
2018-09-13T05:02:20.341Z,16.70
2018-09-13T05:04:47.430Z,16.70
2018-09-13T05:07:14.529Z,16.80
2018-09-13T05:09:41.621Z,16.80
2018-09-13T05:12:08.726Z,16.80
2018-09-13T05:14:35.821Z,17.00
2018-09-13T05:17:02.933Z,17.00
2018-09-13T05:19:30.038Z,17.10
2018-09-13T05:21:57.161Z,17.30
2018-09-13T05:24:24.512Z,17.40
2018-09-13T05:26:51.541Z,17.60
2018-09-13T05:29:18.641Z,17.70
2018-09-13T05:31:45.837Z,17.90
2018-09-13T05:34:12.874Z,17.90
2018-09-13T05:36:39.989Z,17.80
2018-09-13T05:39:10.449Z,17.70
2018-09-13T05:41:37.735Z,17.70
2018-09-13T05:44:04.834Z,17.60
2018-09-13T05:46:31.925Z,17.60
2018-09-13T05:48:59.033Z,17.60
2018-09-13T05:51:26.125Z,17.50
2018-09-13T05:53:53.229Z,17.40
2018-09-13T05:56:20.339Z,17.30
2018-09-13T05:58:47.669Z,17.30
2018-09-13T06:01:14.815Z,17.30
2018-09-13T06:03:41.870Z,17.30
2018-09-13T06:06:08.974Z,17.30
2018-09-13T06:08:36.094Z,17.30
2018-09-13T06:11:03.203Z,17.40
2018-09-13T06:13:30.313Z,17.40
2018-09-13T06:15:57.421Z,17.40
2018-09-13T06:18:24.533Z,17.50
2018-09-13T06:20:51.677Z,17.50
2018-09-13T06:23:19.066Z,17.50
2018-09-13T06:25:46.125Z,17.60
2018-09-13T06:28:13.380Z,17.50
2018-09-13T06:30:40.600Z,17.50
2018-09-13T06:33:07.718Z,17.50
2018-09-13T06:35:34.813Z,17.50
2018-09-13T06:38:01.934Z,17.50
2018-09-13T06:40:29.036Z,17.50
2018-09-13T06:42:56.154Z,17.60
2018-09-13T06:45:23.260Z,17.70
2018-09-13T06:47:50.365Z,17.80
2018-09-13T06:50:17.491Z,17.80
2018-09-13T06:52:44.593Z,18.00
2018-09-13T06:55:11.736Z,18.20
2018-09-13T06:57:38.847Z,18.30
2018-09-13T07:00:05.991Z,18.40
2018-09-13T07:02:33.210Z,18.50
2018-09-13T07:05:00.224Z,18.60
2018-09-13T07:07:27.371Z,18.70
2018-09-13T07:09:54.469Z,18.80
2018-09-13T07:12:21.569Z,18.70
2018-09-13T07:14:48.682Z,18.60
2018-09-13T07:17:15.781Z,18.40
2018-09-13T07:19:42.889Z,18.40
2018-09-13T07:22:09.981Z,18.40
2018-09-13T07:24:37.082Z,18.40
2018-09-13T07:27:04.181Z,18.50
2018-09-13T07:29:31.273Z,18.40
2018-09-13T07:31:58.484Z,18.20
2018-09-13T07:34:25.600Z,18.00
2018-09-13T07:36:52.780Z,18.00
2018-09-13T07:39:19.938Z,18.10
2018-09-13T07:41:47.046Z,18.40
2018-09-13T07:44:14.573Z,19.20
2018-09-13T07:46:41.701Z,20.90
2018-09-13T07:49:08.810Z,21.80
2018-09-13T07:51:35.923Z,21.80
2018-09-13T07:54:03.113Z,21.70
2018-09-13T07:56:30.285Z,21.80
2018-09-13T07:58:57.341Z,21.90
2018-09-13T08:01:24.454Z,21.60
2018-09-13T08:03:51.774Z,21.40
2018-09-13T08:06:18.877Z,22.20
2018-09-13T08:08:45.978Z,23.70
2018-09-13T08:11:13.082Z,24.10
2018-09-13T08:13:40.178Z,24.20
2018-09-13T08:16:07.291Z,23.80
2018-09-13T08:18:34.397Z,22.70
2018-09-13T08:21:01.513Z,22.20
2018-09-13T08:23:28.606Z,21.90
2018-09-13T08:25:55.725Z,21.50
2018-09-13T08:28:22.821Z,21.10
2018-09-13T08:30:50.091Z,20.80
2018-09-13T08:33:17.269Z,20.80
2018-09-13T08:35:44.341Z,20.80
2018-09-13T08:38:11.497Z,20.60
2018-09-13T08:40:38.633Z,20.50
2018-09-13T08:43:05.770Z,20.30
2018-09-13T08:45:33.093Z,20.00
2018-09-13T08:48:00.367Z,19.90
2018-09-13T08:50:27.481Z,20.20
2018-09-13T08:52:54.581Z,20.70
2018-09-13T08:55:21.686Z,21.00
2018-09-13T08:57:48.786Z,21.40
2018-09-13T09:00:15.916Z,22.00
2018-09-13T09:02:43.011Z,22.30
2018-09-13T09:05:10.127Z,22.50
2018-09-13T09:07:38.185Z,22.60
2018-09-13T09:10:05.365Z,22.50
2018-09-13T09:12:32.611Z,22.90
2018-09-13T09:14:59.809Z,23.80
2018-09-13T09:17:27.211Z,24.00
2018-09-13T09:19:54.413Z,24.20
2018-09-13T09:22:21.538Z,24.50
2018-09-13T09:24:48.645Z,24.40
2018-09-13T09:27:15.761Z,24.50
2018-09-13T09:29:42.888Z,24.50
2018-09-13T09:32:10.005Z,24.50
2018-09-13T09:34:37.120Z,24.20
2018-09-13T09:37:04.318Z,24.40
2018-09-13T09:39:31.449Z,24.30
2018-09-13T09:41:58.573Z,24.00
2018-09-13T09:44:25.701Z,24.00
2018-09-13T09:46:52.834Z,24.00
2018-09-13T09:49:20.038Z,23.80
2018-09-13T09:51:47.365Z,23.70
2018-09-13T09:54:14.486Z,23.40
2018-09-13T09:56:41.618Z,23.40
2018-09-13T09:59:08.736Z,23.40
2018-09-13T10:01:40.465Z,23.30
2018-09-13T10:04:07.602Z,23.00
2018-09-13T10:06:34.738Z,22.80
2018-09-13T10:09:01.951Z,23.50
2018-09-13T10:11:29.041Z,24.90
2018-09-13T10:13:56.161Z,25.60
2018-09-13T10:16:29.072Z,25.80
2018-09-13T10:19:01.905Z,26.40
2018-09-13T10:21:34.801Z,27.00
2018-09-13T10:24:07.661Z,26.00
2018-09-13T10:26:40.465Z,25.80
2018-09-13T10:29:13.465Z,25.60
2018-09-13T10:31:46.374Z,25.70
2018-09-13T10:34:19.233Z,25.80
2018-09-13T10:36:52.121Z,25.90
2018-09-13T10:39:25.021Z,26.10
2018-09-13T10:41:57.920Z,25.70
2018-09-13T10:44:30.773Z,25.80
2018-09-13T10:47:03.654Z,26.70
2018-09-13T10:49:36.334Z,27.40
2018-09-13T10:52:07.588Z,27.30
2018-09-13T10:54:37.597Z,27.50
2018-09-13T10:57:10.622Z,27.20
2018-09-13T10:59:37.737Z,27.30
2018-09-13T11:02:05.077Z,27.00
2018-09-13T11:04:32.240Z,26.80
2018-09-13T11:06:59.353Z,26.90
2018-09-13T11:09:26.481Z,27.00
2018-09-13T11:11:53.577Z,26.80
2018-09-13T11:14:25.241Z,25.70
2018-09-13T11:16:52.341Z,25.20
2018-09-13T11:19:19.442Z,24.70
2018-09-13T11:21:46.612Z,24.70
2018-09-13T11:24:13.674Z,24.90
2018-09-13T11:26:40.785Z,25.00
2018-09-13T11:29:07.913Z,25.30
2018-09-13T11:31:35.045Z,25.30
2018-09-13T11:34:02.157Z,24.80
2018-09-13T11:36:29.309Z,24.60
2018-09-13T11:38:56.429Z,24.60
2018-09-13T11:41:23.562Z,24.50
2018-09-13T11:43:50.702Z,24.70
2018-09-13T11:46:17.825Z,25.20
2018-09-13T11:48:44.993Z,25.50
2018-09-13T11:51:12.113Z,25.80
2018-09-13T11:53:39.269Z,25.90
2018-09-13T11:56:06.409Z,26.20
2018-09-13T11:58:33.548Z,26.00
2018-09-13T12:01:00.759Z,25.80
2018-09-13T12:03:27.846Z,25.20
2018-09-13T12:05:54.990Z,25.20
2018-09-13T12:08:22.126Z,25.20
2018-09-13T12:10:49.245Z,25.30
2018-09-13T12:13:16.410Z,24.70
2018-09-13T12:15:43.541Z,25.40
2018-09-13T12:18:10.724Z,26.10
2018-09-13T12:20:37.830Z,27.20
2018-09-13T12:23:05.024Z,27.60
2018-09-13T12:25:32.167Z,27.80
2018-09-13T12:27:59.317Z,27.10
2018-09-13T12:30:26.470Z,26.70
2018-09-13T12:32:53.618Z,26.30
2018-09-13T12:35:20.753Z,26.00
2018-09-13T12:37:47.916Z,26.40
2018-09-13T12:40:15.065Z,27.60
2018-09-13T12:42:42.200Z,28.70
2018-09-13T12:45:09.973Z,29.00
2018-09-13T12:47:37.110Z,29.50
2018-09-13T12:50:04.351Z,29.60
2018-09-13T12:52:31.454Z,29.70
2018-09-13T12:54:58.597Z,28.70
2018-09-13T12:57:25.729Z,29.20
2018-09-13T12:59:52.865Z,28.90
2018-09-13T13:02:19.993Z,28.40
2018-09-13T13:04:47.133Z,27.00
2018-09-13T13:07:14.423Z,26.60
2018-09-13T13:09:41.585Z,27.10
2018-09-13T13:12:08.735Z,28.60
2018-09-13T13:14:35.892Z,29.80
2018-09-13T13:17:03.104Z,30.20
2018-09-13T13:19:30.301Z,30.80
2018-09-13T13:21:57.337Z,30.30
2018-09-13T13:24:24.473Z,31.00
2018-09-13T13:26:51.605Z,31.30
2018-09-13T13:29:18.749Z,31.00
2018-09-13T13:31:45.881Z,30.50
2018-09-13T13:34:13.005Z,29.20
2018-09-13T13:36:40.169Z,28.60
2018-09-13T13:39:08.397Z,27.80
2018-09-13T13:41:35.553Z,27.40
2018-09-13T13:44:02.782Z,27.10
2018-09-13T13:46:29.921Z,27.10
2018-09-13T13:48:57.121Z,27.30
2018-09-13T13:51:24.309Z,27.30
2018-09-13T13:53:51.494Z,27.40
2018-09-13T13:56:18.641Z,27.30
2018-09-13T13:58:45.785Z,27.70
2018-09-13T14:01:12.968Z,28.00
2018-09-13T14:03:40.161Z,28.00
2018-09-13T14:06:07.297Z,28.20
2018-09-13T14:08:34.505Z,27.70
2018-09-13T14:11:01.659Z,28.00
2018-09-13T14:13:28.781Z,28.50
2018-09-13T14:15:55.913Z,29.20
2018-09-13T14:18:23.042Z,29.20
2018-09-13T14:20:50.222Z,28.50
2018-09-13T14:23:17.323Z,27.90
2018-09-13T14:25:44.457Z,27.30
2018-09-13T14:28:11.711Z,26.80
2018-09-13T14:30:38.869Z,26.40
2018-09-13T14:33:06.005Z,25.90
2018-09-13T14:35:33.312Z,25.70
2018-09-13T14:38:00.406Z,25.30
2018-09-13T14:40:27.542Z,24.80
2018-09-13T14:42:54.693Z,24.20
2018-09-13T14:45:21.878Z,23.90
2018-09-13T14:47:49.025Z,23.70
2018-09-13T14:50:16.169Z,23.60
2018-09-13T14:52:43.309Z,24.20
2018-09-13T14:55:10.454Z,24.60
2018-09-13T14:57:37.589Z,24.80
2018-09-13T15:00:05.561Z,24.80
2018-09-13T15:02:32.693Z,25.10
2018-09-13T15:04:59.894Z,25.40
2018-09-13T15:07:27.080Z,25.30
2018-09-13T15:09:54.201Z,24.60
2018-09-13T15:12:21.338Z,24.40
2018-09-13T15:14:48.477Z,24.00
2018-09-13T15:17:15.646Z,23.40
2018-09-13T15:19:42.773Z,23.10
2018-09-13T15:22:09.925Z,22.60
2018-09-13T15:24:37.243Z,22.40
2018-09-13T15:27:04.406Z,22.20
2018-09-13T15:29:31.542Z,21.90
2018-09-13T15:31:58.705Z,21.60
2018-09-13T15:34:25.842Z,21.40
2018-09-13T15:36:53.020Z,21.30
2018-09-13T15:39:20.161Z,21.20
2018-09-13T15:41:47.278Z,21.10
2018-09-13T15:44:14.413Z,21.00
2018-09-13T15:46:41.557Z,20.80
2018-09-13T15:49:08.689Z,20.70
2018-09-13T15:51:36.180Z,20.50
2018-09-13T15:54:03.389Z,20.30
2018-09-13T15:56:30.505Z,20.20
2018-09-13T15:58:57.693Z,20.00
2018-09-13T16:01:24.781Z,19.70
2018-09-13T16:03:52.029Z,19.40
2018-09-13T16:06:19.149Z,19.20
2018-09-13T16:08:46.245Z,19.10
2018-09-13T16:11:13.337Z,18.90
2018-09-13T16:13:40.433Z,18.90
2018-09-13T16:16:07.889Z,18.80
2018-09-13T16:18:35.005Z,18.70
2018-09-13T16:21:02.123Z,18.40
2018-09-13T16:23:29.229Z,18.30
2018-09-13T16:25:56.365Z,18.10
2018-09-13T16:28:23.429Z,17.90
2018-09-13T16:30:50.513Z,17.90
2018-09-13T16:33:17.637Z,17.80
2018-09-13T16:35:47.454Z,17.70
2018-09-13T16:38:20.162Z,17.60
2018-09-13T16:40:53.154Z,17.40
2018-09-13T16:43:25.849Z,17.30
2018-09-13T16:45:52.969Z,17.10
2018-09-13T16:48:20.134Z,16.80
2018-09-13T16:50:47.229Z,16.60
2018-09-13T16:53:14.322Z,16.40
2018-09-13T16:55:41.413Z,16.30
2018-09-13T16:58:08.501Z,16.20
2018-09-13T17:00:35.621Z,16.20
2018-09-13T17:03:02.745Z,16.10
2018-09-13T17:05:29.841Z,16.00
2018-09-13T17:07:56.990Z,15.90
2018-09-13T17:10:24.113Z,15.90
2018-09-13T17:12:51.229Z,15.90
2018-09-13T17:15:18.381Z,15.80
2018-09-13T17:17:45.549Z,15.80
2018-09-13T17:20:12.680Z,15.80
2018-09-13T17:22:39.970Z,15.80
2018-09-13T17:25:07.078Z,15.80
2018-09-13T17:27:34.194Z,15.80
2018-09-13T17:30:01.308Z,15.70
2018-09-13T17:32:28.431Z,15.70
2018-09-13T17:34:55.546Z,15.60
2018-09-13T17:37:22.689Z,15.50
2018-09-13T17:39:49.800Z,15.50
2018-09-13T17:42:16.949Z,15.40
2018-09-13T17:44:44.056Z,15.40
2018-09-13T17:47:11.176Z,15.50
2018-09-13T17:49:38.305Z,15.50
2018-09-13T17:52:05.426Z,15.40
2018-09-13T17:54:32.554Z,15.40
2018-09-13T17:56:59.686Z,15.30
2018-09-13T17:59:26.805Z,15.30
2018-09-13T18:01:53.914Z,15.30
2018-09-13T18:04:21.017Z,15.30
2018-09-13T18:06:48.130Z,15.30
2018-09-13T18:09:15.526Z,15.30
2018-09-13T18:11:42.654Z,15.30
2018-09-13T18:14:09.749Z,15.30
2018-09-13T18:16:36.853Z,15.30
2018-09-13T18:19:03.996Z,15.30
2018-09-13T18:21:31.133Z,15.30
2018-09-13T18:23:58.332Z,15.20
2018-09-13T18:26:25.426Z,15.20
2018-09-13T18:28:52.550Z,15.20
2018-09-13T18:31:19.672Z,15.10
2018-09-13T18:33:46.896Z,15.10
2018-09-13T18:36:14.050Z,15.10
2018-09-13T18:38:41.395Z,15.10
2018-09-13T18:41:08.466Z,15.10
2018-09-13T18:43:35.562Z,15.10
2018-09-13T18:46:02.769Z,15.10
2018-09-13T18:48:29.994Z,15.10
2018-09-13T18:50:57.113Z,15.10
2018-09-13T18:53:24.369Z,15.10
2018-09-13T18:55:51.510Z,15.10
2018-09-13T18:58:18.638Z,15.10
2018-09-13T19:00:45.754Z,15.10
2018-09-13T19:03:12.856Z,15.00
2018-09-13T19:05:39.949Z,15.00
2018-09-13T19:08:07.079Z,15.00
2018-09-13T19:10:34.162Z,15.00
2018-09-13T19:13:01.273Z,15.00
2018-09-13T19:15:28.381Z,15.00
2018-09-13T19:17:55.494Z,15.00
2018-09-13T19:20:22.602Z,15.00
2018-09-13T19:22:49.700Z,15.10
2018-09-13T19:25:16.802Z,15.10
2018-09-13T19:27:43.951Z,15.20
2018-09-13T19:30:11.069Z,15.10
2018-09-13T19:32:38.182Z,15.20
2018-09-13T19:35:05.785Z,15.20
2018-09-13T19:37:32.902Z,15.20
2018-09-13T19:40:00.019Z,15.20
2018-09-13T19:42:27.158Z,15.10
2018-09-13T19:44:54.330Z,15.10
2018-09-13T19:47:21.523Z,15.10
2018-09-13T19:49:48.657Z,15.10
2018-09-13T19:52:15.781Z,15.00
2018-09-13T19:54:42.926Z,15.10
2018-09-13T19:57:10.017Z,15.00
2018-09-13T19:59:37.134Z,15.00
2018-09-13T20:02:04.253Z,15.00
2018-09-13T20:04:31.444Z,15.00
2018-09-13T20:06:58.505Z,14.90
2018-09-13T20:09:25.666Z,14.90
2018-09-13T20:11:52.820Z,14.90
2018-09-13T20:14:19.980Z,14.90
2018-09-13T20:16:47.073Z,14.90
2018-09-13T20:19:14.354Z,14.90
2018-09-13T20:21:41.593Z,14.90
2018-09-13T20:24:08.785Z,14.90
2018-09-13T20:26:35.933Z,14.90
2018-09-13T20:29:03.250Z,14.90
2018-09-13T20:31:30.333Z,14.80
2018-09-13T20:33:57.646Z,14.80
2018-09-13T20:36:24.762Z,14.70
2018-09-13T20:38:51.942Z,14.80
2018-09-13T20:41:19.085Z,14.80
2018-09-13T20:43:46.306Z,14.90
2018-09-13T20:46:13.425Z,14.90
2018-09-13T20:48:40.631Z,14.90
2018-09-13T20:51:07.757Z,14.90
2018-09-13T20:53:34.977Z,14.90
2018-09-13T20:56:02.165Z,14.90
2018-09-13T20:58:29.293Z,14.90
2018-09-13T21:00:56.422Z,14.90
2018-09-13T21:03:23.711Z,14.90
2018-09-13T21:05:50.857Z,14.90
2018-09-13T21:08:18.015Z,15.00
2018-09-13T21:10:45.181Z,14.90
2018-09-13T21:13:12.466Z,14.90
2018-09-13T21:15:39.610Z,14.90
2018-09-13T21:18:06.757Z,14.80
2018-09-13T21:20:33.886Z,14.80
2018-09-13T21:23:01.798Z,14.80
2018-09-13T21:25:28.933Z,14.80
2018-09-13T21:27:56.053Z,14.80
2018-09-13T21:30:23.198Z,14.80
2018-09-13T21:32:50.364Z,14.70
2018-09-13T21:35:17.480Z,14.70
2018-09-13T21:37:44.625Z,14.70
2018-09-13T21:40:11.761Z,14.70
2018-09-13T21:42:38.874Z,14.60
2018-09-13T21:45:06.094Z,14.60
2018-09-13T21:47:33.189Z,14.60
2018-09-13T21:50:00.292Z,14.60
2018-09-13T21:52:27.410Z,14.60
2018-09-13T21:54:54.605Z,14.60
2018-09-13T21:57:21.709Z,14.70
2018-09-13T21:59:48.817Z,14.70
2018-09-13T22:02:15.917Z,14.80
2018-09-13T22:04:43.062Z,14.80
2018-09-13T22:07:10.142Z,14.90
2018-09-13T22:09:37.251Z,14.90
2018-09-13T22:12:04.377Z,14.80
2018-09-13T22:14:31.496Z,14.80
2018-09-13T22:16:58.628Z,14.80
2018-09-13T22:19:25.743Z,14.80
2018-09-13T22:21:52.863Z,14.80
2018-09-13T22:24:19.962Z,14.80
2018-09-13T22:26:47.082Z,14.80
2018-09-13T22:29:14.296Z,14.70
2018-09-13T22:31:41.313Z,14.70
2018-09-13T22:34:08.409Z,14.70
2018-09-13T22:36:35.882Z,14.70
2018-09-13T22:39:05.089Z,14.80
2018-09-13T22:41:32.298Z,14.80
2018-09-13T22:43:59.397Z,14.80
2018-09-13T22:46:26.505Z,14.80
2018-09-13T22:48:53.605Z,14.80
2018-09-13T22:51:20.717Z,14.80
2018-09-13T22:53:47.835Z,14.80
2018-09-13T22:56:15.643Z,14.80
2018-09-13T22:58:42.778Z,14.80
2018-09-13T23:01:09.893Z,14.80
2018-09-13T23:03:36.998Z,14.80
2018-09-13T23:06:04.161Z,14.70
2018-09-13T23:08:31.361Z,14.60
2018-09-13T23:10:58.481Z,14.60
2018-09-13T23:13:25.583Z,14.50
2018-09-13T23:15:52.731Z,14.50
2018-09-13T23:18:19.809Z,14.60
2018-09-13T23:20:46.921Z,14.60
2018-09-13T23:23:14.021Z,14.70
2018-09-13T23:25:41.205Z,14.70
2018-09-13T23:28:08.330Z,14.70
2018-09-13T23:30:35.430Z,14.70
2018-09-13T23:33:02.562Z,14.80
2018-09-13T23:35:29.670Z,14.80
2018-09-13T23:37:56.777Z,14.80
2018-09-13T23:40:23.993Z,14.80
2018-09-13T23:42:51.028Z,14.80
2018-09-13T23:45:18.142Z,14.80
2018-09-13T23:47:45.294Z,14.80
2018-09-13T23:50:12.394Z,14.90
2018-09-13T23:52:39.505Z,14.90
2018-09-13T23:55:06.721Z,14.90
2018-09-13T23:57:33.833Z,15.00
